Time;durP1;ratioP1;P1;durP2;ratioP2;P2;SDS_P1;SDS_P2;PMS_P1;PMS_P2;Temp;Humidity;BMP_temperature;BMP_pressure;BME280_temperature;BME280_humidity;BME280_pressure;Samples;Min_cycle;Max_cycle;Signal;HPM_P1;HPM_P2
2022/02/27 00:00:38;;;;;;;24.10;11.45;;;;;;;3.49;81.40;103354.94;5017468;28;20034;-77
2022/02/27 00:03:04;;;;;;;19.75;10.05;;;;;;;3.46;81.50;103351.44;5017482;28;20030;-77
2022/02/27 00:05:29;;;;;;;23.98;11.05;;;;;;;3.46;81.75;103340.22;5022105;28;20221;-77
2022/02/27 00:07:55;;;;;;;22.77;10.85;;;;;;;3.44;81.54;103349.66;5003456;28;20044;-77
2022/02/27 00:10:21;;;;;;;23.60;10.38;;;;;;;3.43;81.48;103342.69;5016443;28;20053;-77
2022/02/27 00:12:50;;;;;;;22.90;10.02;;;;;;;3.41;81.54;103354.72;5017686;28;20044;-77
2022/02/27 00:15:16;;;;;;;27.15;12.23;;;;;;;3.41;81.81;103349.56;5017481;28;20065;-77
2022/02/27 00:17:42;;;;;;;23.52;10.55;;;;;;;3.41;81.72;103350.41;5029906;28;20029;-77
2022/02/27 00:20:09;;;;;;;18.42;9.45;;;;;;;3.41;81.64;103354.72;5029543;28;20222;-77
2022/02/27 00:22:35;;;;;;;24.88;10.70;;;;;;;3.40;81.84;103358.16;5017512;28;20399;-77
2022/02/27 00:25:00;;;;;;;23.13;10.55;;;;;;;3.40;81.88;103352.97;5016950;28;20033;-77
2022/02/27 00:27:26;;;;;;;21.55;9.10;;;;;;;3.42;81.97;103361.66;5017299;28;20049;-77
2022/02/27 00:29:51;;;;;;;17.40;8.85;;;;;;;3.43;82.08;103356.53;5036350;28;20041;-77
2022/02/27 00:32:17;;;;;;;16.88;8.35;;;;;;;3.43;82.26;103348.75;5019599;28;20343;-77
2022/02/27 00:34:42;;;;;;;15.45;8.98;;;;;;;3.42;82.01;103348.69;5024812;28;20084;-77
2022/02/27 00:37:08;;;;;;;20.48;10.70;;;;;;;3.41;81.77;103352.16;5021200;28;20045;-77
2022/02/27 00:39:33;;;;;;;18.60;9.05;;;;;;;3.41;81.89;103350.41;5027611;28;20392;-77
2022/02/27 00:41:59;;;;;;;16.52;8.85;;;;;;;3.40;81.91;103350.38;5041139;28;20063;-77
2022/02/27 00:44:24;;;;;;;23.40;10.75;;;;;;;3.39;81.47;103348.63;5041216;28;20109;-77
2022/02/27 00:46:49;;;;;;;21.08;9.77;;;;;;;3.38;81.55;103349.44;5023586;28;20128;-77
2022/02/27 00:49:15;;;;;;;21.50;9.35;;;;;;;3.37;81.50;103356.34;5041191;28;20041;-77
2022/02/27 00:51:41;;;;;;;22.40;10.23;;;;;;;3.35;81.48;103352.84;5007396;28;20325;-77
2022/02/27 00:54:07;;;;;;;20.75;10.00;;;;;;;3.34;81.28;103348.47;5006866;28;20415;-77
2022/02/27 00:56:33;;;;;;;22.48;10.55;;;;;;;3.33;81.20;103345.84;5040867;28;20049;-77
2022/02/27 00:58:58;;;;;;;19.23;10.13;;;;;;;3.31;81.24;103347.50;5040646;28;20063;-77
2022/02/27 01:01:24;;;;;;;30.75;12.10;;;;;;;3.31;81.24;103344.91;5023511;28;20075;-77
2022/02/27 01:03:49;;;;;;;20.25;9.15;;;;;;;3.29;80.81;103349.19;5040930;28;20068;-77
2022/02/27 01:06:16;;;;;;;21.13;10.20;;;;;;;3.26;80.91;103344.81;5023003;28;20037;-77
2022/02/27 01:08:42;;;;;;;26.50;11.13;;;;;;;3.24;81.02;103339.56;5023416;28;20110;-77
2022/02/27 01:11:08;;;;;;;31.75;12.32;;;;;;;3.20;80.76;103335.16;5040649;28;20037;-77
2022/02/27 01:13:33;;;;;;;28.88;10.63;;;;;;;3.19;80.77;103340.28;5023481;28;20221;-77
2022/02/27 01:15:59;;;;;;;23.80;10.52;;;;;;;3.15;80.74;103335.84;5040508;28;20033;-77
2022/02/27 01:18:24;;;;;;;25.38;9.80;;;;;;;3.13;80.67;103333.19;5040598;28;20049;-77
2022/02/27 01:20:49;;;;;;;25.02;10.45;;;;;;;3.10;80.61;103333.09;5040457;28;20044;-77
2022/02/27 01:23:15;;;;;;;23.17;10.57;;;;;;;3.08;80.43;103324.41;5022623;28;20080;-77
2022/02/27 01:25:40;;;;;;;26.83;11.05;;;;;;;3.04;80.70;103328.63;5040910;28;20246;-77
2022/02/27 01:28:06;;;;;;;28.40;11.98;;;;;;;2.99;80.56;103324.13;5040504;28;20061;-77
2022/02/27 01:30:31;;;;;;;21.98;11.18;;;;;;;2.98;80.83;103324.94;5022808;28;20046;-77
2022/02/27 01:32:56;;;;;;;18.42;9.00;;;;;;;2.99;80.90;103324.13;5022629;28;20072;-77
2022/02/27 01:35:22;;;;;;;18.60;8.75;;;;;;;2.98;80.86;103320.63;5022989;28;20029;-77
2022/02/27 01:37:47;;;;;;;20.58;9.13;;;;;;;3.00;80.80;103331.06;5022474;28;20114;-77
2022/02/27 01:40:13;;;;;;;24.30;10.10;;;;;;;2.97;80.82;103323.22;5040346;28;20047;-77
2022/02/27 01:42:38;;;;;;;18.38;9.18;;;;;;;2.96;80.64;103326.63;5006345;28;20293;-77
2022/02/27 01:45:05;;;;;;;22.27;9.93;;;;;;;2.94;80.57;103325.69;5021763;28;20025;-77
2022/02/27 01:47:31;;;;;;;21.35;10.52;;;;;;;2.92;80.74;103324.78;5021674;28;20414;-77
2022/02/27 01:49:56;;;;;;;20.85;9.18;;;;;;;2.90;80.64;103327.31;5022195;28;20025;-77
2022/02/27 01:52:21;;;;;;;19.02;9.48;;;;;;;2.89;80.79;103328.13;5022529;28;20256;-77
2022/02/27 01:54:48;;;;;;;17.25;8.55;;;;;;;2.90;80.87;103326.44;5040130;28;20067;-77
2022/02/27 01:57:14;;;;;;;12.00;7.68;;;;;;;2.90;80.82;103326.44;5040097;28;20209;-77
2022/02/27 01:59:40;;;;;;;19.92;8.55;;;;;;;2.90;80.88;103329.03;5040039;28;20033;-77
2022/02/27 02:04:56;;;;;;;16.98;7.93;;;;;;;2.90;80.81;103329.91;5055528;28;20228;-77
2022/02/27 02:07:22;;;;;;;19.70;8.38;;;;;;;2.89;80.83;103328.13;5025613;28;20041;-77
2022/02/27 02:09:47;;;;;;;20.08;9.60;;;;;;;2.86;80.77;103325.47;5041480;28;20380;-77
2022/02/27 02:12:13;;;;;;;18.58;7.90;;;;;;;2.86;80.87;103323.75;5059730;28;20059;-77
2022/02/27 02:14:38;;;;;;;14.50;7.03;;;;;;;2.89;81.14;103322.94;5042052;28;20090;-77
2022/02/27 02:17:04;;;;;;;19.30;7.93;;;;;;;2.92;81.27;103323.06;5059333;28;20049;-77
2022/02/27 02:19:29;;;;;;;13.57;7.32;;;;;;;2.92;81.65;103320.47;5041927;28;20028;-77
2022/02/27 02:21:59;;;;;;;11.60;6.32;;;;;;;2.93;81.16;103326.50;5041396;28;20056;-77
2022/02/27 02:24:24;;;;;;;14.35;7.22;;;;;;;2.93;81.44;103322.25;5059537;28;20028;-77
2022/02/27 02:26:50;;;;;;;14.30;6.95;;;;;;;2.94;81.43;103320.53;5059290;28;20059;-77
2022/02/27 02:29:21;;;;;;;18.67;7.57;;;;;;;2.92;81.56;103325.66;5041507;28;20048;-77
2022/02/27 02:31:48;;;;;;;14.65;6.50;;;;;;;2.94;81.87;103328.28;5059890;28;20096;-77
2022/02/27 02:34:16;;;;;;;12.88;6.63;;;;;;;2.95;81.97;103323.16;5059435;28;20037;-76
2022/02/27 02:36:43;;;;;;;12.60;6.30;;;;;;;2.93;81.63;103314.47;5059751;28;20275;-77
2022/02/27 02:39:10;;;;;;;16.73;7.60;;;;;;;2.94;81.74;103317.94;5058972;28;20021;-77
2022/02/27 02:41:37;;;;;;;13.75;5.88;;;;;;;2.92;81.39;103306.66;5059344;28;20029;-77
2022/02/27 02:44:03;;;;;;;8.93;6.25;;;;;;;2.90;81.35;103305.72;5058624;28;20037;-77
2022/02/27 02:46:31;;;;;;;9.02;6.13;;;;;;;2.92;81.41;103301.47;5040796;28;20036;-77
2022/02/27 02:48:57;;;;;;;10.93;6.40;;;;;;;2.90;80.85;103305.72;5041404;28;20067;-77
2022/02/27 02:51:23;;;;;;;11.30;5.90;;;;;;;2.89;81.41;103299.66;5041036;28;20311;-77
2022/02/27 02:53:48;;;;;;;11.85;5.97;;;;;;;2.88;81.08;103305.69;5058799;28;20045;-77
2022/02/27 02:56:13;;;;;;;13.02;6.32;;;;;;;2.87;81.10;103302.22;5058739;28;20340;-77
2022/02/27 02:58:41;;;;;;;16.30;7.60;;;;;;;2.85;80.91;103297.81;5040679;28;20418;-76
2022/02/27 03:01:09;;;;;;;11.50;6.25;;;;;;;2.84;80.94;103285.72;5059028;28;20321;-76
2022/02/27 03:03:36;;;;;;;14.48;6.90;;;;;;;2.81;80.95;103291.66;5040900;28;20328;-77
2022/02/27 03:06:03;;;;;;;15.02;6.85;;;;;;;2.82;80.75;103300.28;5040476;28;20020;-77
2022/02/27 03:08:28;;;;;;;13.40;6.40;;;;;;;2.79;80.83;103276.94;5058717;28;20036;-77
2022/02/27 03:10:54;;;;;;;11.45;6.30;;;;;;;2.75;80.42;103291.47;5023857;28;20361;-77
2022/02/27 03:13:19;;;;;;;17.45;7.07;;;;;;;2.74;80.69;103286.25;5040637;28;20037;-77
2022/02/27 03:15:44;;;;;;;14.75;6.82;;;;;;;2.70;80.77;103282.69;5024134;28;20041;-77
2022/02/27 03:18:10;;;;;;;19.73;7.97;;;;;;;2.69;80.80;103296.44;5040125;28;20222;-77
2022/02/27 03:20:35;;;;;;;12.55;7.13;;;;;;;2.69;80.94;103280.91;5040483;28;20396;-77
2022/02/27 03:23:01;;;;;;;9.63;6.70;;;;;;;2.67;80.78;103282.59;5040038;28;20076;-77
2022/02/27 03:25:27;;;;;;;10.70;6.85;;;;;;;2.65;80.77;103274.78;5040658;28;20093;-77
2022/02/27 03:27:52;;;;;;;12.43;6.60;;;;;;;2.64;80.82;103273.03;5040171;28;20025;-77
2022/02/27 03:30:18;;;;;;;11.90;6.28;;;;;;;2.63;80.73;103275.56;5039993;28;20295;-77
2022/02/27 03:32:46;;;;;;;16.10;7.00;;;;;;;2.62;80.90;103271.22;5058554;28;20084;-77
2022/02/27 03:35:16;;;;;;;12.38;6.40;;;;;;;2.60;80.55;103267.69;5057987;28;20039;-77
2022/02/27 03:37:42;;;;;;;12.68;6.63;;;;;;;2.58;80.68;103264.19;5040440;28;20075;-77
2022/02/27 03:40:08;;;;;;;10.00;6.05;;;;;;;2.57;80.51;103262.47;5057801;28;20036;-77
2022/02/27 03:42:34;;;;;;;13.00;6.57;;;;;;;2.55;80.54;103257.22;5057938;28;20332;-77
2022/02/27 03:44:59;;;;;;;11.60;6.60;;;;;;;2.54;80.46;103263.22;5039675;28;20405;-77
2022/02/27 03:47:25;;;;;;;8.20;5.40;;;;;;;2.53;80.48;103273.50;5057701;28;20048;-77
2022/02/27 03:49:50;;;;;;;11.38;6.55;;;;;;;2.49;80.49;103260.50;5057469;28;20289;-77
2022/02/27 03:52:17;;;;;;;13.15;6.55;;;;;;;2.48;80.52;103266.50;5023820;28;20037;-77
2022/02/27 03:54:42;;;;;;;10.38;6.38;;;;;;;2.47;80.67;103264.75;5058013;28;20347;-77
2022/02/27 03:57:07;;;;;;;14.57;7.03;;;;;;;2.47;80.80;103276.78;5057642;28;20045;-77
2022/02/27 03:59:33;;;;;;;11.18;5.38;;;;;;;2.46;80.67;103269.88;5023541;28;20033;-77
2022/02/27 04:01:58;;;;;;;12.23;6.85;;;;;;;2.44;80.42;103268.94;5057511;28;20235;-77
2022/02/27 04:04:24;;;;;;;11.30;5.93;;;;;;;2.43;80.45;103272.34;5039747;28;20048;-77
2022/02/27 04:06:49;;;;;;;12.48;6.22;;;;;;;2.42;80.60;103268.91;5057321;28;20072;-77
2022/02/27 04:09:15;;;;;;;11.07;5.63;;;;;;;2.41;80.25;103274.00;5039163;28;20202;-77
2022/02/27 04:11:40;;;;;;;13.82;5.60;;;;;;;2.39;80.49;103276.53;5057684;28;20129;-77
2022/02/27 04:14:06;;;;;;;10.55;5.55;;;;;;;2.39;80.50;103270.50;5039259;28;20033;-77
2022/02/27 04:16:31;;;;;;;11.32;5.75;;;;;;;2.38;80.33;103272.19;5039446;28;20294;-77
2022/02/27 04:18:57;;;;;;;11.38;6.15;;;;;;;2.37;80.60;103270.44;5039430;28;20267;-77
2022/02/27 04:21:22;;;;;;;10.52;6.13;;;;;;;2.35;80.38;103266.03;5006599;28;20397;-77
2022/02/27 04:23:48;;;;;;;11.35;5.63;;;;;;;2.33;80.42;103266.00;5056993;28;20356;-77
2022/02/27 04:26:13;;;;;;;10.32;6.10;;;;;;;2.30;80.14;103251.25;5039407;28;20108;-77
2022/02/27 04:28:39;;;;;;;9.52;5.18;;;;;;;2.29;80.52;103259.88;5040235;28;20037;-77
2022/02/27 04:31:04;;;;;;;10.32;5.78;;;;;;;2.30;80.46;103265.91;5038972;28;20037;-77
2022/02/27 04:33:30;;;;;;;13.32;5.18;;;;;;;2.30;80.66;103263.31;5039371;28;20245;-77
2022/02/27 04:35:55;;;;;;;12.45;5.30;;;;;;;2.30;80.52;103255.56;5039056;28;20040;-77
2022/02/27 04:38:21;;;;;;;7.22;4.90;;;;;;;2.28;80.22;103263.25;5057215;28;20059;-77
2022/02/27 04:40:46;;;;;;;9.30;5.35;;;;;;;2.27;80.43;103258.03;5023113;28;20236;-77
2022/02/27 04:43:11;;;;;;;10.27;5.70;;;;;;;2.25;80.33;103264.88;5056737;28;20044;-77
2022/02/27 04:45:37;;;;;;;13.00;6.13;;;;;;;2.22;80.55;103265.66;5039561;28;20029;-77
2022/02/27 04:48:02;;;;;;;9.18;5.50;;;;;;;2.21;80.39;103268.19;5039166;28;20044;-77
2022/02/27 04:50:28;;;;;;;10.90;6.00;;;;;;;2.18;80.24;103274.13;5056948;28;20336;-77
2022/02/27 04:52:53;;;;;;;8.75;5.28;;;;;;;2.17;80.54;103274.97;5038965;28;20037;-77
2022/02/27 04:55:19;;;;;;;6.43;4.55;;;;;;;2.16;80.41;103272.31;5057388;28;20108;-77
2022/02/27 04:57:45;;;;;;;8.38;5.38;;;;;;;2.16;80.52;103267.16;5039235;28;20044;-77
2022/02/27 05:00:11;;;;;;;8.20;4.55;;;;;;;2.16;80.42;103269.75;5038851;28;20356;-77
2022/02/27 05:02:36;;;;;;;7.25;4.35;;;;;;;2.16;80.56;103262.84;5039384;28;20048;-77
2022/02/27 05:05:02;;;;;;;6.95;4.50;;;;;;;2.16;80.67;103265.44;5057127;28;20033;-77
2022/02/27 05:07:28;;;;;;;5.90;4.68;;;;;;;2.15;80.61;103271.47;5039060;28;20112;-77
2022/02/27 05:09:53;;;;;;;6.90;4.30;;;;;;;2.16;80.67;103264.56;5022320;28;20045;-77
2022/02/27 05:12:19;;;;;;;6.55;4.50;;;;;;;2.15;80.45;103260.22;5057138;28;20033;-77
2022/02/27 05:14:45;;;;;;;11.23;5.40;;;;;;;2.13;80.55;103249.84;5057127;28;20244;-77
2022/02/27 05:17:10;;;;;;;7.53;5.22;;;;;;;2.13;80.67;103256.72;5056535;28;20337;-77
2022/02/27 05:19:35;;;;;;;6.93;4.60;;;;;;;2.12;80.74;103248.09;5056989;28;20318;-77
2022/02/27 05:22:02;;;;;;;7.75;4.20;;;;;;;2.11;80.79;103247.22;5042357;28;20068;-77
2022/02/27 05:24:28;;;;;;;7.78;4.68;;;;;;;2.10;80.68;103242.84;5042995;28;20049;-77
2022/02/27 05:26:53;;;;;;;8.75;5.32;;;;;;;2.08;80.37;103244.50;5042651;28;20271;-77
2022/02/27 05:29:19;;;;;;;7.75;4.53;;;;;;;2.08;80.68;103236.75;5042637;28;20342;-77
2022/02/27 05:31:45;;;;;;;10.45;5.20;;;;;;;2.07;80.70;103240.19;5042740;28;20348;-77
2022/02/27 05:34:11;;;;;;;9.80;5.93;;;;;;;2.04;80.44;103227.16;5042568;28;20071;-77
2022/02/27 05:36:37;;;;;;;10.43;5.65;;;;;;;2.02;80.50;103226.22;5060526;28;20092;-77
2022/02/27 05:39:03;;;;;;;10.50;5.30;;;;;;;2.01;80.85;103219.28;5060247;28;20096;-77
2022/02/27 05:41:29;;;;;;;10.93;4.90;;;;;;;2.00;80.68;103214.97;5042622;28;20027;-77
2022/02/27 05:43:55;;;;;;;8.38;4.68;;;;;;;1.99;80.73;103220.94;5025841;28;20241;-77
2022/02/27 05:46:20;;;;;;;9.43;5.22;;;;;;;1.97;80.61;103220.03;5060799;28;20083;-77
2022/02/27 05:48:46;;;;;;;10.90;5.55;;;;;;;1.97;80.53;103230.38;5060593;28;20037;-77
2022/02/27 05:51:11;;;;;;;5.93;4.45;;;;;;;1.97;80.92;103225.19;5041853;28;20025;-77
2022/02/27 05:53:37;;;;;;;4.95;4.18;;;;;;;1.97;80.77;103232.94;5042246;28;20111;-77
2022/02/27 05:56:02;;;;;;;5.53;3.88;;;;;;;1.97;81.04;103232.94;5042262;28;20036;-77
2022/02/27 05:58:30;;;;;;;9.20;5.03;;;;;;;1.98;81.10;103237.28;5059707;28;20094;-77
2022/02/27 06:00:57;;;;;;;5.80;3.93;;;;;;;2.00;80.81;103240.81;5059996;28;20028;-77
2022/02/27 06:03:22;;;;;;;8.90;5.45;;;;;;;1.95;80.47;103242.38;5059774;28;20033;-77
2022/02/27 06:05:48;;;;;;;11.65;5.32;;;;;;;1.94;80.86;103238.00;5041839;28;20228;-77
2022/02/27 06:08:13;;;;;;;6.55;4.40;;;;;;;1.95;80.89;103249.22;5041811;28;20032;-77
2022/02/27 06:10:39;;;;;;;6.35;4.25;;;;;;;1.94;80.85;103240.59;5042051;28;20041;-77
2022/02/27 06:13:04;;;;;;;7.43;4.00;;;;;;;1.96;80.96;103253.56;5041542;28;20098;-77
2022/02/27 06:15:30;;;;;;;8.80;4.10;;;;;;;1.95;81.11;103251.78;5042246;28;20037;-77
2022/02/27 06:17:55;;;;;;;9.45;4.85;;;;;;;1.94;80.89;103256.09;5059290;28;20254;-77
2022/02/27 06:20:21;;;;;;;8.43;4.43;;;;;;;1.92;80.97;103253.44;5041751;28;20332;-77
2022/02/27 06:22:48;;;;;;;4.50;4.10;;;;;;;1.92;81.05;103256.03;5041611;28;20033;-77
2022/02/27 06:25:15;;;;;;;4.95;3.47;;;;;;;1.93;81.01;103251.78;5059410;28;20320;-77
2022/02/27 06:27:44;;;;;;;6.97;4.72;;;;;;;1.92;81.16;103253.44;5041946;28;20436;-77
2022/02/27 06:30:15;;;;;;;6.88;4.80;;;;;;;1.91;80.94;103253.41;5041374;28;20060;-77
2022/02/27 06:32:40;;;;;;;6.55;4.13;;;;;;;1.89;80.87;103252.47;5040575;28;20341;-77
2022/02/27 06:35:08;;;;;;;5.90;4.65;;;;;;;1.86;80.87;103257.56;5041284;28;20328;-77
2022/02/27 06:37:33;;;;;;;8.02;4.28;;;;;;;1.86;80.92;103244.63;5024961;28;20028;-77
2022/02/27 06:39:59;;;;;;;5.80;4.50;;;;;;;1.84;81.06;103247.16;5041034;28;20337;-77
2022/02/27 06:42:24;;;;;;;10.77;5.03;;;;;;;1.82;80.99;103259.16;5024730;28;20454;-77
2022/02/27 06:44:50;;;;;;;10.27;4.50;;;;;;;1.84;80.96;103248.88;5058874;28;20398;-77
2022/02/27 06:47:16;;;;;;;8.10;5.13;;;;;;;1.83;80.94;103253.16;5059002;28;20037;-77
2022/02/27 06:49:41;;;;;;;5.07;4.22;;;;;;;1.83;80.88;103257.44;5024248;28;20039;-77
2022/02/27 06:52:06;;;;;;;5.15;3.75;;;;;;;1.82;80.94;103256.56;5018205;28;20127;-77
2022/02/27 06:54:32;;;;;;;9.13;4.32;;;;;;;1.79;80.84;103256.47;5017513;28;20073;-77
2022/02/27 06:56:57;;;;;;;9.35;4.75;;;;;;;1.79;80.86;103258.19;5017260;28;20499;-77
2022/02/27 06:59:22;;;;;;;9.15;5.18;;;;;;;1.76;80.84;103261.50;5016374;28;20057;-77
2022/02/27 07:01:48;;;;;;;9.70;5.50;;;;;;;1.70;80.59;103258.72;5015762;28;20067;-77
2022/02/27 07:04:13;;;;;;;14.20;5.70;;;;;;;1.65;80.97;103261.13;5016110;28;20034;-77
2022/02/27 07:06:38;;;;;;;9.73;5.13;;;;;;;1.65;80.95;103263.72;4999785;28;20034;-77
2022/02/27 07:09:04;;;;;;;8.00;5.07;;;;;;;1.65;81.15;103257.69;5015485;28;20077;-77
2022/02/27 07:11:29;;;;;;;7.85;5.10;;;;;;;1.65;81.52;103257.69;5016092;28;20088;-77
2022/02/27 07:13:55;;;;;;;9.32;5.07;;;;;;;1.64;81.48;103263.69;4998994;28;20026;-77
2022/02/27 07:16:23;;;;;;;8.48;4.43;;;;;;;1.67;81.58;103267.25;5008910;28;20041;-77
2022/02/27 07:18:49;;;;;;;8.80;4.55;;;;;;;1.68;81.74;103270.72;5036742;28;20045;-77
2022/02/27 07:21:16;;;;;;;6.80;4.68;;;;;;;1.67;81.77;103266.34;5010521;28;20033;-77
2022/02/27 07:23:41;;;;;;;6.30;4.93;;;;;;;1.67;81.49;103262.09;5018859;28;20252;-77
2022/02/27 07:26:07;;;;;;;5.93;4.60;;;;;;;1.67;81.69;103250.84;5018331;28;20039;-77
2022/02/27 07:28:32;;;;;;;10.85;5.10;;;;;;;1.65;81.56;103255.09;5036244;28;20033;-77
2022/02/27 07:30:58;;;;;;;6.72;4.55;;;;;;;1.66;81.74;103256.88;5036391;28;20030;-77
2022/02/27 07:33:23;;;;;;;6.68;4.47;;;;;;;1.68;81.94;103253.50;5008119;28;20044;-77
2022/02/27 07:35:49;;;;;;;14.02;5.55;;;;;;;1.66;81.63;103259.44;5021064;28;20030;-77
2022/02/27 07:38:14;;;;;;;6.97;4.75;;;;;;;1.66;81.79;103257.75;5018165;28;20112;-77
2022/02/27 07:40:40;;;;;;;7.40;4.50;;;;;;;1.65;81.58;103261.13;5017498;28;20041;-77
2022/02/27 07:43:05;;;;;;;9.73;4.53;;;;;;;1.66;81.77;103262.91;5030647;28;20210;-77
2022/02/27 07:45:31;;;;;;;11.30;4.43;;;;;;;1.66;81.85;103268.06;5001935;28;20321;-77
2022/02/27 07:47:56;;;;;;;8.75;5.13;;;;;;;1.69;81.87;103277.63;5017992;28;20147;-77
2022/02/27 07:50:21;;;;;;;8.13;5.20;;;;;;;1.66;81.98;103270.66;5024912;28;20222;-77
2022/02/27 07:52:47;;;;;;;9.68;5.13;;;;;;;1.66;81.95;103272.38;5034744;28;20498;-77
2022/02/27 07:55:12;;;;;;;7.18;4.50;;;;;;;1.69;82.13;103268.19;5034337;28;20033;-77
2022/02/27 07:57:38;;;;;;;7.68;4.68;;;;;;;1.71;82.29;103269.13;5023078;28;20049;-77
2022/02/27 08:00:06;;;;;;;15.13;4.80;;;;;;;1.75;82.44;103270.09;5034260;28;20040;-77
2022/02/27 08:02:31;;;;;;;12.60;5.63;;;;;;;1.75;82.35;103271.78;5035372;28;20037;-77
2022/02/27 08:04:56;;;;;;;10.63;5.28;;;;;;;1.77;82.57;103280.50;5034395;28;20358;-77
2022/02/27 08:07:22;;;;;;;9.60;4.57;;;;;;;1.78;82.73;103274.47;5025031;28;20053;-77
2022/02/27 08:09:47;;;;;;;10.95;4.50;;;;;;;1.80;82.47;103278.91;5011059;28;20108;-77
2022/02/27 08:12:13;;;;;;;8.57;4.20;;;;;;;1.81;82.68;103272.88;5018173;28;20041;-77
2022/02/27 08:14:38;;;;;;;5.45;3.92;;;;;;;1.84;82.77;103270.41;5017781;28;20069;-77
2022/02/27 08:17:04;;;;;;;4.93;4.38;;;;;;;1.87;82.87;103270.53;5017717;28;20049;-77
2022/02/27 08:19:29;;;;;;;9.40;5.15;;;;;;;1.87;82.69;103270.53;5035310;28;20370;-77
2022/02/27 08:21:54;;;;;;;12.02;5.65;;;;;;;1.90;82.83;103267.16;5035210;28;20187;-77
2022/02/27 08:24:20;;;;;;;16.33;5.57;;;;;;;1.88;82.74;103272.28;5034377;28;20536;-77
2022/02/27 08:26:45;;;;;;;9.70;4.72;;;;;;;1.90;82.70;103267.16;5017788;28;20120;-77
2022/02/27 08:29:11;;;;;;;7.68;4.82;;;;;;;1.94;83.20;103263.84;5034011;28;20069;-77
2022/02/27 08:31:40;;;;;;;13.88;4.82;;;;;;;1.99;82.59;103264.03;5005107;28;20048;-77
2022/02/27 08:34:06;;;;;;;10.18;5.22;;;;;;;2.01;82.67;103264.94;5014223;28;20025;-77
2022/02/27 08:36:31;;;;;;;14.00;4.57;;;;;;;1.99;82.51;103257.13;5035436;28;20055;-77
2022/02/27 08:38:59;;;;;;;8.40;5.35;;;;;;;2.00;82.55;103258.91;5016508;28;20048;-77
2022/02/27 08:41:26;;;;;;;8.75;4.57;;;;;;;2.03;82.72;103261.56;5009825;28;20535;-77
2022/02/27 08:43:52;;;;;;;7.60;4.55;;;;;;;2.05;82.71;103267.66;5001516;28;20026;-77
2022/02/27 08:46:18;;;;;;;9.10;4.55;;;;;;;2.06;82.66;103276.31;5026523;28;20152;-77
2022/02/27 08:48:43;;;;;;;9.82;5.20;;;;;;;2.06;82.64;103277.19;5011176;28;20029;-77
2022/02/27 08:51:09;;;;;;;6.75;4.47;;;;;;;2.09;82.77;103272.13;5032330;28;20037;-77
2022/02/27 08:53:34;;;;;;;11.45;4.88;;;;;;;2.10;82.83;103270.41;5014321;28;20104;-77
2022/02/27 08:56:00;;;;;;;12.13;4.95;;;;;;;2.11;82.59;103267.00;5017032;28;20037;-77
2022/02/27 08:58:25;;;;;;;7.18;4.80;;;;;;;2.16;82.46;103262.00;5036880;28;20045;-77
2022/02/27 09:00:50;;;;;;;9.52;4.75;;;;;;;2.17;82.71;103268.94;5036922;28;20358;-77
2022/02/27 09:03:16;;;;;;;17.08;5.30;;;;;;;2.19;82.67;103268.13;5003487;28;20341;-77
2022/02/27 09:05:43;;;;;;;8.60;4.88;;;;;;;2.22;82.41;103262.19;5034882;28;20033;-76
2022/02/27 09:08:08;;;;;;;13.15;5.35;;;;;;;2.25;82.54;103264.88;5020404;28;20045;-77
2022/02/27 09:10:34;;;;;;;6.75;4.18;;;;;;;2.29;82.55;103267.63;5000737;28;20113;-77
2022/02/27 09:12:59;;;;;;;9.80;5.30;;;;;;;2.32;82.70;103271.13;5035279;28;20037;-77
2022/02/27 09:15:25;;;;;;;12.23;4.63;;;;;;;2.35;82.60;103259.19;5014093;28;20108;-77
2022/02/27 09:17:50;;;;;;;8.02;4.40;;;;;;;2.37;82.49;103265.28;5003225;28;20037;-76
2022/02/27 09:20:16;;;;;;;7.57;4.20;;;;;;;2.44;82.64;103263.78;5009696;28;20336;-77
2022/02/27 09:22:42;;;;;;;10.70;5.03;;;;;;;2.50;82.71;103264.81;5017797;28;20056;-77
2022/02/27 09:25:08;;;;;;;11.60;4.53;;;;;;;2.55;82.70;103269.25;5019560;28;20044;-77
2022/02/27 09:27:33;;;;;;;10.52;4.53;;;;;;;2.58;82.35;103269.38;5004045;28;20037;-77
2022/02/27 09:29:59;;;;;;;5.35;3.88;;;;;;;2.61;82.08;103264.28;5018952;28;20389;-77
2022/02/27 09:32:24;;;;;;;8.20;4.22;;;;;;;2.66;81.99;103268.78;5019738;28;20086;-77
2022/02/27 09:34:50;;;;;;;6.15;4.20;;;;;;;2.71;82.38;103260.28;5002974;28;20110;-77
2022/02/27 09:37:15;;;;;;;10.77;4.20;;;;;;;2.76;82.28;103259.59;5020154;28;20037;-77
2022/02/27 09:39:40;;;;;;;7.68;4.05;;;;;;;2.80;81.45;103253.69;5002205;28;20025;-76
2022/02/27 09:42:06;;;;;;;10.48;4.75;;;;;;;2.83;81.36;103258.94;5036349;28;20040;-77
2022/02/27 09:44:42;;;;;;;12.77;3.95;;;;;;;2.86;80.66;103251.28;5016733;28;20033;-77
2022/02/27 09:47:13;;;;;;;10.93;4.00;;;;;;;2.92;80.08;103244.53;5037444;28;20332;-76
2022/02/27 09:49:42;;;;;;;9.68;4.32;;;;;;;2.96;80.31;103248.97;5035097;28;20030;-76
2022/02/27 09:52:07;;;;;;;11.30;4.43;;;;;;;3.00;78.99;103237.84;5035769;28;20029;-76
2022/02/27 09:54:34;;;;;;;9.93;4.07;;;;;;;3.04;78.69;103232.81;5035584;28;20036;-76
2022/02/27 09:56:59;;;;;;;6.20;3.75;;;;;;;3.11;78.75;103240.75;4995779;28;20071;-77
2022/02/27 09:59:25;;;;;;;7.75;3.67;;;;;;;3.12;78.21;103233.03;5017347;28;20541;-76
2022/02/27 10:02:03;;;;;;;13.88;4.40;;;;;;;3.16;78.17;103237.47;5019014;28;20131;-76
2022/02/27 10:04:33;;;;;;;7.00;3.70;;;;;;;3.23;77.96;103241.97;5014177;28;20032;-77
2022/02/27 10:06:59;;;;;;;10.75;3.90;;;;;;;3.25;78.27;103242.91;5032380;28;20224;-76
2022/02/27 10:09:24;;;;;;;6.28;4.18;;;;;;;3.30;77.30;103242.16;5036378;28;20064;-76
2022/02/27 10:11:51;;;;;;;7.75;4.20;;;;;;;3.37;76.51;103244.97;5034960;28;20045;-77
2022/02/27 10:14:26;;;;;;;8.73;3.90;;;;;;;3.41;76.03;103240.75;5034356;28;20363;-76
2022/02/27 10:17:03;;;;;;;9.10;3.83;;;;;;;3.47;75.12;103240.91;5014744;28;20369;-76
2022/02/27 10:19:28;;;;;;;7.60;3.60;;;;;;;3.49;75.67;103231.47;5032023;28;20120;-77
2022/02/27 10:21:54;;;;;;;5.50;4.03;;;;;;;3.53;76.25;103233.31;5006933;28;20100;-77
2022/02/27 10:24:19;;;;;;;13.07;3.30;;;;;;;3.57;76.10;103237.75;5024068;28;20546;-76
2022/02/27 10:26:50;;;;;;;6.90;3.70;;;;;;;3.60;76.32;103231.75;5022888;28;20144;-77
2022/02/27 10:29:25;;;;;;;4.28;3.13;;;;;;;3.63;76.21;103227.53;5043559;28;20041;-77
2022/02/27 10:31:57;;;;;;;7.40;3.33;;;;;;;3.67;76.10;103228.47;5038694;28;20060;-77
2022/02/27 10:34:28;;;;;;;7.30;3.72;;;;;;;3.72;76.08;103220.84;5038612;28;20273;-77
2022/02/27 10:37:08;;;;;;;7.20;3.53;;;;;;;3.76;74.60;103214.88;5007301;28;20021;-77
2022/02/27 10:39:46;;;;;;;10.70;3.65;;;;;;;3.83;74.23;103212.47;5038736;28;20108;-77
2022/02/27 10:42:17;;;;;;;7.00;3.00;;;;;;;3.87;74.85;103210.84;5020421;28;20374;-77
2022/02/27 10:44:54;;;;;;;7.20;2.63;;;;;;;3.90;74.57;103203.16;5039134;28;20029;-77
2022/02/27 10:47:26;;;;;;;5.13;3.13;;;;;;;3.96;74.44;103199.84;5036935;28;20033;-77
2022/02/27 10:49:54;;;;;;;4.72;3.20;;;;;;;3.98;74.09;103212.03;5047162;28;20036;-77
2022/02/27 10:52:28;;;;;;;8.95;2.95;;;;;;;4.01;74.55;103212.06;5032652;28;20029;-77
2022/02/27 10:55:04;;;;;;;5.68;2.63;;;;;;;4.03;74.10;103205.19;5036388;28;20117;-77
2022/02/27 10:57:40;;;;;;;7.40;3.58;;;;;;;4.08;73.57;103200.16;5044502;28;20046;-77
2022/02/27 11:00:15;;;;;;;4.65;2.92;;;;;;;4.11;73.54;103196.72;5038689;28;20059;-77
2022/02/27 11:02:45;;;;;;;3.10;2.85;;;;;;;4.13;73.49;103198.53;5038220;28;20044;-77
2022/02/27 11:05:12;;;;;;;3.28;2.50;;;;;;;4.16;72.69;103192.53;5020223;28;20102;-77
2022/02/27 11:07:40;;;;;;;4.18;2.80;;;;;;;4.20;73.19;103187.47;5038223;28;20332;-77
2022/02/27 11:10:11;;;;;;;7.32;3.25;;;;;;;4.23;73.01;103191.84;5040075;28;20320;-77
2022/02/27 11:12:37;;;;;;;7.47;3.28;;;;;;;4.27;72.55;103190.19;5036827;28;20075;-77
2022/02/27 11:15:09;;;;;;;4.57;2.92;;;;;;;4.32;72.66;103181.69;5016377;28;20092;-77
2022/02/27 11:17:34;;;;;;;6.32;2.47;;;;;;;4.38;71.98;103175.75;5036763;28;20033;-77
2022/02/27 11:20:03;;;;;;;5.57;2.90;;;;;;;4.44;71.95;103181.09;5036096;28;20553;-76
2022/02/27 11:22:29;;;;;;;7.20;3.20;;;;;;;4.49;71.57;103173.41;5012822;28;20150;-77
2022/02/27 11:24:58;;;;;;;5.30;3.40;;;;;;;4.56;71.08;103177.88;5045174;28;20040;-77
2022/02/27 11:27:27;;;;;;;;;;;;;;;4.59;71.50;103177.97;5028421;28;20248;-77